Huvudsida
METAR-TAF:

METAR-TAF

Flygplatser :

Lecce, Italien

latitud: 40-14N, longitud: 018-09E, höjd: 48 m

Aktuellt väderrapport

Denna rapport gjordes för 1 timme och 15 minuter sedan, klockan 19:55 UTC
Vind 6 kt från väst
Temperatur 10°C
Fuktighet 93%
Tryck 1009 hPa
Sikt 10 km eller mer
Få moln på en höjd av 3000 ft

METAR: LIBN 141955Z 28006KT 9999 FEW030 10/09 Q1009 RMK FEW VIS MIN 9999 WIND THR14 28006KT WIND THR32 27008KT BLU

Tid: 22:10 (21:10 UTC)

Väderprognos

Denna rapport gjordes för 31 timmar och 10 minuter sedan, klockan 14:00 UTC
Prognos gäller från 13 kl. 15 UTC till 13 kl. 24 UTC
Vind 15 kt från syd
Sikt 10 km eller mer
Spridda moln på en höjd av 2500 ft
Temporärt
från 13 kl. 16 UTC till 13 kl. 21 UTC
Vind 15 kt från syd/sydväst i byarna ända upp till 33 kt
Sikt: 6000 m
Spridda moln på en höjd av 1000 ft
Brutna moln på en höjd av 2500 ft
regn

TAF: LIBN 131400Z 1315/1324 19015KT 9999 SCT025 TEMPO 1316/1321 20015G33KT 6000 RA SCT010 BKN025

Aktuella väderrapporter och prognoser från 4000 flygplatser (METAR- och TAF-rapporter).

De tillgängliga stationerna syns som gula och röda prickar på kartan.

För musen över prickarna för att se namnen på stationerna.

Klicka sedan för att få väderrapporter och prognoser.

För att ändra kartan: Klicka på de gröna knapparna med ett svart kors på för att zooma in; den gröna knappen med ett streck på för att zooma ut; eller på de gröna pilarna för angränsande kartor.


METAR-TAF: